createdAt,value
2023-03-31T00:04:23.815Z,99474
2023-03-31T00:10:22.350Z,99466
2023-03-31T00:16:16.918Z,99456
2023-03-31T00:22:10.678Z,99444
2023-03-31T00:28:08.311Z,99434
2023-03-31T00:34:03.260Z,99412
2023-03-31T00:39:56.324Z,99400
2023-03-31T00:45:50.044Z,99386
2023-03-31T00:51:48.379Z,99377
2023-03-31T00:57:42.617Z,99370
2023-03-31T01:03:39.073Z,99353
2023-03-31T01:09:31.764Z,99336
2023-03-31T01:15:32.140Z,99330
2023-03-31T01:21:28.359Z,99324
2023-03-31T01:27:22.334Z,99325
2023-03-31T01:33:29.141Z,99312
2023-03-31T01:39:21.891Z,99303
2023-03-31T01:45:14.185Z,99298
2023-03-31T01:51:08.763Z,99295
2023-03-31T01:57:00.562Z,99288
2023-03-31T02:09:00.402Z,99261
2023-03-31T02:14:59.414Z,99243
2023-03-31T02:20:50.856Z,99224
2023-03-31T02:26:44.076Z,99210
2023-03-31T02:32:49.859Z,99177
2023-03-31T02:38:52.905Z,99153
2023-03-31T02:44:44.206Z,99146
2023-03-31T02:50:41.122Z,99126
2023-03-31T02:56:35.908Z,99098
2023-03-31T03:02:28.741Z,99078
2023-03-31T03:08:23.899Z,99066
2023-03-31T03:14:16.553Z,99053
2023-03-31T03:20:15.841Z,99051
2023-03-31T03:26:18.396Z,99068
2023-03-31T03:32:12.308Z,99028
2023-03-31T03:38:08.463Z,99020
2023-03-31T03:44:13.929Z,99008
2023-03-31T03:50:05.664Z,99007
2023-03-31T03:55:59.095Z,99001
2023-03-31T04:02:05.150Z,98993
2023-03-31T04:08:01.033Z,98996
2023-03-31T04:13:52.577Z,98985
2023-03-31T04:19:43.940Z,98972
2023-03-31T04:25:51.484Z,98962
2023-03-31T04:31:43.242Z,98923
2023-03-31T04:37:36.618Z,98907
2023-03-31T04:43:43.128Z,98884
2023-03-31T04:49:34.695Z,98858
2023-03-31T04:55:31.807Z,98848
2023-03-31T05:01:29.877Z,98813
2023-03-31T05:07:22.155Z,98820
2023-03-31T05:19:34.964Z,98776
2023-03-31T05:25:26.376Z,98784
2023-03-31T05:31:18.760Z,98795
2023-03-31T05:37:11.793Z,98789
2023-03-31T05:43:02.968Z,98773
2023-03-31T05:48:57.878Z,98759
2023-03-31T05:54:49.818Z,98744
2023-03-31T06:00:43.846Z,98740
2023-03-31T06:06:44.418Z,98743
2023-03-31T06:12:40.388Z,98733
2023-03-31T06:18:32.786Z,98725
2023-03-31T06:24:25.604Z,98710
2023-03-31T06:30:18.570Z,98702
2023-03-31T06:36:19.565Z,98692
2023-03-31T06:42:19.254Z,98677
2023-03-31T06:48:13.674Z,98676
2023-03-31T06:54:04.891Z,98665
2023-03-31T06:59:57.252Z,98652
2023-03-31T07:05:49.075Z,98655
2023-03-31T07:11:41.424Z,98639
2023-03-31T07:17:33.970Z,98647
2023-03-31T07:23:27.222Z,98642
2023-03-31T07:29:20.511Z,98652
2023-03-31T07:35:13.906Z,98645
2023-03-31T07:41:13.560Z,98648
2023-03-31T07:47:04.708Z,98645
2023-03-31T07:52:57.178Z,98642
2023-03-31T07:59:02.448Z,98651
2023-03-31T08:04:56.696Z,98651
2023-03-31T08:10:48.533Z,98639
2023-03-31T08:16:41.765Z,98620
2023-03-31T08:22:35.273Z,98637
2023-03-31T08:28:28.444Z,98640
2023-03-31T08:34:21.617Z,98627
2023-03-31T08:40:12.641Z,98630
2023-03-31T08:46:04.442Z,98614
2023-03-31T08:51:57.367Z,98622
2023-03-31T08:57:49.290Z,98610
2023-03-31T09:03:40.970Z,98609
2023-03-31T09:09:34.967Z,98600
2023-03-31T09:15:26.597Z,98584
2023-03-31T09:21:18.501Z,98577
2023-03-31T09:27:10.348Z,98569
2023-03-31T09:33:02.789Z,98561
2023-03-31T09:38:57.630Z,98557
2023-03-31T09:44:49.408Z,98572
2023-03-31T09:50:47.534Z,98579
2023-03-31T09:56:46.789Z,98572
2023-03-31T10:02:44.764Z,98573
2023-03-31T10:08:49.741Z,98553
2023-03-31T10:14:45.005Z,98554
2023-03-31T10:20:53.715Z,98548
2023-03-31T10:26:48.087Z,98548
2023-03-31T10:32:38.835Z,98532
2023-03-31T10:38:37.474Z,98537
2023-03-31T10:44:42.909Z,98528
2023-03-31T10:50:41.041Z,98526
2023-03-31T10:56:32.640Z,98525
2023-03-31T11:02:25.882Z,98533
2023-03-31T11:08:25.689Z,98533
2023-03-31T11:14:20.296Z,98523
2023-03-31T11:20:17.317Z,98521
2023-03-31T11:26:12.741Z,98510
2023-03-31T11:32:09.954Z,98501
2023-03-31T11:38:16.612Z,98485
2023-03-31T11:44:27.167Z,98479
2023-03-31T11:50:58.452Z,98476
2023-03-31T11:57:03.144Z,98485
2023-03-31T12:03:05.749Z,98515
2023-03-31T12:09:01.511Z,98556
2023-03-31T12:14:58.013Z,98517
2023-03-31T12:20:53.069Z,98446
2023-03-31T12:26:45.162Z,98459
2023-03-31T12:32:41.554Z,98453
2023-03-31T12:38:35.452Z,98457
2023-03-31T12:44:48.566Z,98448
2023-03-31T12:50:39.838Z,98431
2023-03-31T12:56:33.084Z,98416
2023-03-31T13:02:24.879Z,98404
2023-03-31T13:08:18.559Z,98398
2023-03-31T13:14:13.833Z,98383
2023-03-31T13:20:07.893Z,98416
2023-03-31T13:25:59.504Z,98436
2023-03-31T13:31:54.240Z,98407
2023-03-31T13:37:46.573Z,98400
2023-03-31T13:43:40.378Z,98408
2023-03-31T13:49:35.635Z,98403
2023-03-31T13:55:27.765Z,98394
2023-03-31T14:01:21.378Z,98403
2023-03-31T14:07:18.176Z,98407
2023-03-31T14:13:22.509Z,98403
2023-03-31T14:19:14.920Z,98412
2023-03-31T14:25:08.664Z,98393
2023-03-31T14:31:05.663Z,98383
2023-03-31T14:36:59.668Z,98403
2023-03-31T14:42:52.927Z,98379
2023-03-31T14:48:44.788Z,98373
2023-03-31T14:54:39.732Z,98352
2023-03-31T15:00:35.907Z,98346
2023-03-31T15:06:29.341Z,98345
2023-03-31T15:12:22.303Z,98342
2023-03-31T15:18:17.160Z,98349
2023-03-31T15:24:09.393Z,98354
2023-03-31T15:30:05.554Z,98368
2023-03-31T15:36:00.212Z,98365
2023-03-31T15:41:54.217Z,98381
2023-03-31T15:47:48.100Z,98360
2023-03-31T15:53:44.834Z,98368
2023-03-31T16:19:23.136Z,98369
2023-03-31T16:25:15.144Z,98385
2023-03-31T16:31:06.622Z,98390
2023-03-31T16:36:58.676Z,98391
2023-03-31T16:42:50.711Z,98392
2023-03-31T16:48:43.916Z,98394
2023-03-31T16:54:35.074Z,98387
2023-03-31T17:00:28.558Z,98389
2023-03-31T17:06:20.761Z,98393
2023-03-31T17:12:12.911Z,98397
2023-03-31T17:18:06.847Z,98401
2023-03-31T17:24:03.213Z,98389
2023-03-31T17:29:56.110Z,98396
2023-03-31T17:35:52.830Z,98401
2023-03-31T17:41:53.186Z,98395
2023-03-31T17:49:10.815Z,98405
2023-03-31T18:01:47.290Z,98409
2023-03-31T18:07:45.638Z,98422
2023-03-31T18:13:49.416Z,98425
2023-03-31T18:19:43.954Z,98425
2023-03-31T18:25:36.915Z,98425
2023-03-31T18:31:29.085Z,98420
2023-03-31T18:37:21.203Z,98418
2023-03-31T18:43:15.022Z,98431
2023-03-31T18:49:23.758Z,98451
2023-03-31T18:55:29.137Z,98447
2023-03-31T19:01:21.396Z,98448
2023-03-31T19:07:18.621Z,98455
2023-03-31T19:13:27.440Z,98456
2023-03-31T19:19:20.973Z,98458
2023-03-31T19:25:25.525Z,98459
2023-03-31T19:31:23.915Z,98455
2023-03-31T19:37:23.423Z,98454
2023-03-31T19:43:15.530Z,98452
2023-03-31T19:49:15.545Z,98453
2023-03-31T19:55:15.230Z,98451
2023-03-31T20:01:10.746Z,98447
2023-03-31T20:07:03.929Z,98448
2023-03-31T20:12:56.961Z,98445
2023-03-31T20:18:49.814Z,98443
2023-03-31T20:24:41.180Z,98433
2023-03-31T20:30:32.824Z,98438
2023-03-31T20:36:27.921Z,98434
2023-03-31T20:42:21.701Z,98434
2023-03-31T20:54:34.658Z,98437
2023-03-31T21:00:45.690Z,98436
2023-03-31T21:06:40.082Z,98430
2023-03-31T21:12:50.275Z,98432
2023-03-31T21:18:57.659Z,98437
2023-03-31T21:24:49.697Z,98443
2023-03-31T21:30:47.354Z,98442
2023-03-31T21:36:42.071Z,98428
2023-03-31T21:42:33.123Z,98430
2023-03-31T21:48:23.799Z,98419
2023-03-31T21:54:15.321Z,98433
2023-03-31T22:00:07.220Z,98425
2023-03-31T22:06:04.274Z,98430
2023-03-31T22:11:55.503Z,98433
2023-03-31T22:17:48.157Z,98433
2023-03-31T22:23:41.402Z,98432
2023-03-31T22:29:32.942Z,98427
2023-03-31T22:35:24.845Z,98425
2023-03-31T22:41:16.621Z,98433
2023-03-31T23:34:50.877Z,98430
2023-03-31T23:40:43.813Z,98420
2023-03-31T23:46:36.230Z,98432
2023-03-31T23:52:32.336Z,98428
2023-03-31T23:58:25.699Z,98424
